Time;durP1;ratioP1;P1;durP2;ratioP2;P2;SDS_P1;SDS_P2;PMS_P1;PMS_P2;Temp;Humidity;BMP_temperature;BMP_pressure;BME280_temperature;BME280_humidity;BME280_pressure;Samples;Min_cycle;Max_cycle;Signal;HPM_P1;HPM_P2
2022/07/08 00:02:15;;;;;;;13.02;6.30;;;;;;;14.82;83.70;101292.69;5024302;28;20091;-73
2022/07/08 00:04:41;;;;;;;13.02;6.72;;;;;;;14.85;83.46;101283.81;5021819;28;20408;-73
2022/07/08 00:07:06;;;;;;;13.75;5.22;;;;;;;14.83;83.35;101294.47;5025686;28;20033;-73
2022/07/08 00:09:31;;;;;;;11.50;6.13;;;;;;;14.80;83.43;101289.19;5028363;28;20183;-74
2022/07/08 00:11:57;;;;;;;15.95;5.93;;;;;;;14.71;83.02;101293.72;5022770;28;20499;-73
2022/07/08 00:14:23;;;;;;;8.90;6.22;;;;;;;14.79;82.95;101282.09;5023796;28;20050;-73
2022/07/08 00:16:49;;;;;;;10.35;6.25;;;;;;;14.76;83.44;101292.78;5021945;28;20045;-73
2022/07/08 00:19:16;;;;;;;13.40;6.32;;;;;;;14.73;83.91;101298.13;5024692;28;20112;-73
2022/07/08 00:21:43;;;;;;;14.90;6.13;;;;;;;14.75;83.44;101288.38;5021246;28;20049;-73
2022/07/08 00:24:10;;;;;;;15.55;6.40;;;;;;;14.74;83.01;101278.63;5023086;28;20033;-73
2022/07/08 00:26:36;;;;;;;14.15;6.38;;;;;;;14.70;83.49;101292.84;5025048;28;20045;-73
2022/07/08 00:29:01;;;;;;;15.85;6.20;;;;;;;14.73;82.46;101290.16;5026975;28;20092;-73
2022/07/08 00:31:26;;;;;;;11.55;5.70;;;;;;;14.67;82.85;101292.84;5020631;28;20428;-72
2022/07/08 00:33:52;;;;;;;12.35;5.70;;;;;;;14.69;82.14;101291.06;5024599;28;20581;-73
2022/07/08 00:36:17;;;;;;;12.38;5.75;;;;;;;14.72;82.48;101295.47;5026737;28;20504;-72
2022/07/08 00:38:42;;;;;;;13.02;6.13;;;;;;;14.76;81.64;101295.44;5024502;28;20038;-73
2022/07/08 00:41:07;;;;;;;13.07;6.50;;;;;;;14.67;81.93;101293.75;5022006;28;20041;-73
2022/07/08 00:43:37;;;;;;;15.85;6.60;;;;;;;14.71;82.47;101289.28;5023409;28;20096;-73
2022/07/08 00:46:02;;;;;;;9.60;4.65;;;;;;;14.69;82.09;101299.03;5020939;28;20071;-73
2022/07/08 00:48:27;;;;;;;13.25;6.10;;;;;;;14.69;81.49;101299.03;5023888;28;20116;-73
2022/07/08 00:50:53;;;;;;;11.65;6.30;;;;;;;14.73;81.56;101297.25;5021604;28;20037;-73
2022/07/08 00:53:19;;;;;;;11.00;6.75;;;;;;;14.76;81.48;101307.84;5022341;28;20037;-73
2022/07/08 00:55:45;;;;;;;10.30;6.50;;;;;;;14.73;81.42;101306.09;5022613;28;20514;-73
2022/07/08 00:58:12;;;;;;;11.73;6.47;;;;;;;14.71;81.50;101307.88;5021370;28;20034;-73
2022/07/08 01:00:37;;;;;;;11.05;5.88;;;;;;;14.71;81.94;101318.50;5023935;28;20148;-73
2022/07/08 01:03:02;;;;;;;7.13;5.57;;;;;;;14.74;81.33;101321.13;5015637;28;20144;-73
2022/07/08 01:05:28;;;;;;;11.55;6.15;;;;;;;14.71;81.86;101318.50;5021330;28;20041;-73
2022/07/08 01:07:53;;;;;;;11.45;5.53;;;;;;;14.73;81.38;101324.69;5004657;28;20095;-74
2022/07/08 01:10:19;;;;;;;11.02;6.55;;;;;;;14.68;80.75;101321.19;5023544;28;20041;-74
2022/07/08 01:12:44;;;;;;;12.50;6.35;;;;;;;14.76;80.80;101319.34;5022366;28;20116;-73
2022/07/08 01:15:10;;;;;;;9.75;6.22;;;;;;;14.78;80.85;101322.00;5020546;28;20042;-73
2022/07/08 01:17:45;;;;;;;14.00;5.75;;;;;;;14.74;80.43;101315.81;5023592;28;20083;-74
2022/07/08 01:20:12;;;;;;;11.07;6.20;;;;;;;14.76;80.72;101321.13;5022246;28;20074;-74
2022/07/08 01:22:37;;;;;;;15.50;5.95;;;;;;;14.68;80.90;101330.03;5020381;28;20505;-74
2022/07/08 01:25:06;;;;;;;15.43;6.35;;;;;;;14.68;80.76;101326.53;5021571;28;20095;-74
2022/07/08 01:27:32;;;;;;;11.02;6.10;;;;;;;14.72;81.27;101330.88;5022674;28;20042;-73
2022/07/08 01:29:58;;;;;;;11.38;6.25;;;;;;;14.72;80.89;101330.88;5022422;28;20033;-74
2022/07/08 01:32:30;;;;;;;14.82;7.35;;;;;;;14.79;80.34;101329.06;5021191;28;20091;-73
2022/07/08 01:34:55;;;;;;;12.60;6.25;;;;;;;14.78;80.65;101333.50;5020117;28;20073;-73
2022/07/08 01:37:21;;;;;;;11.68;6.57;;;;;;;14.77;80.61;101336.16;5023134;28;20053;-74
2022/07/08 01:39:47;;;;;;;13.45;6.10;;;;;;;14.80;80.46;101334.38;5023828;28;20396;-74
2022/07/08 01:42:12;;;;;;;12.95;5.82;;;;;;;14.69;82.92;101341.53;5021479;28;20037;-74
2022/07/08 01:44:38;;;;;;;16.05;6.47;;;;;;;14.46;84.67;101341.72;5021432;28;20065;-74
2022/07/08 01:47:03;;;;;;;14.60;6.35;;;;;;;14.29;85.41;101339.25;5020776;28;20038;-73
2022/07/08 01:49:28;;;;;;;12.80;5.85;;;;;;;14.22;86.61;101340.19;5023175;28;20038;-74
2022/07/08 01:51:54;;;;;;;12.40;5.70;;;;;;;14.17;86.58;101340.25;5022578;28;20045;-74
2022/07/08 01:54:19;;;;;;;18.30;6.25;;;;;;;14.21;86.72;101343.75;5022460;28;20044;-73
2022/07/08 01:56:45;;;;;;;13.35;5.80;;;;;;;14.27;86.58;101345.47;5024248;28;20041;-74
2022/07/08 01:59:10;;;;;;;21.98;6.82;;;;;;;14.24;86.69;101349.03;5029853;28;20036;-74
2022/07/08 02:01:36;;;;;;;13.85;5.57;;;;;;;14.27;87.02;101346.34;5024964;28;20041;-73
2022/07/08 02:04:01;;;;;;;14.98;5.40;;;;;;;14.33;85.76;101346.31;5022143;28;20038;-73
2022/07/08 02:06:28;;;;;;;10.85;5.95;;;;;;;14.37;85.46;101341.84;5019439;28;20068;-73
2022/07/08 02:08:53;;;;;;;13.35;6.35;;;;;;;14.34;85.05;101337.44;5002338;28;20053;-73
2022/07/08 02:14:02;;;;;;;13.02;5.65;;;;;;;14.42;84.59;101346.19;5019651;28;20038;-73
2022/07/08 02:16:28;;;;;;;18.80;6.85;;;;;;;14.40;84.54;101347.13;5022388;28;20113;-73
2022/07/08 02:18:53;;;;;;;12.88;6.85;;;;;;;14.45;83.97;101348.81;5020445;28;20076;-73
2022/07/08 02:21:19;;;;;;;14.77;7.35;;;;;;;14.50;84.00;101348.78;5019166;28;20044;-73
2022/07/08 02:23:44;;;;;;;15.80;6.80;;;;;;;14.57;82.87;101354.97;5021828;28;20075;-73
2022/07/08 02:26:09;;;;;;;12.48;6.75;;;;;;;14.54;83.11;101354.97;5019838;28;20085;-73
2022/07/08 02:28:35;;;;;;;12.48;6.32;;;;;;;14.57;83.47;101350.53;5022513;28;20041;-73
2022/07/08 02:31:00;;;;;;;11.75;5.95;;;;;;;14.62;83.00;101358.47;5018981;28;20700;-74
2022/07/08 02:33:25;;;;;;;13.43;7.10;;;;;;;14.70;82.46;101351.31;5021863;28;20403;-73
2022/07/08 02:35:50;;;;;;;17.60;7.38;;;;;;;14.66;83.28;101362.84;5020722;28;20041;-73
2022/07/08 02:38:16;;;;;;;9.68;6.10;;;;;;;14.70;82.60;101361.94;5020663;28;20037;-73
2022/07/08 02:40:41;;;;;;;13.15;6.50;;;;;;;14.76;81.88;101361.84;5017691;28;20095;-73
2022/07/08 02:43:10;;;;;;;14.23;6.68;;;;;;;14.73;82.20;101364.56;5019070;28;20034;-73
2022/07/08 02:45:35;;;;;;;18.73;8.45;;;;;;;14.79;81.90;101361.81;5019493;28;20069;-73
2022/07/08 02:48:01;;;;;;;17.88;7.13;;;;;;;14.72;82.18;101362.78;5021610;28;20588;-73
2022/07/08 02:50:26;;;;;;;13.55;6.47;;;;;;;14.71;82.34;101363.69;5020525;28;20033;-73
2022/07/08 02:52:52;;;;;;;11.23;6.50;;;;;;;14.66;83.21;101374.34;5019889;28;20121;-73
2022/07/08 02:55:17;;;;;;;21.55;7.45;;;;;;;14.68;83.26;101380.53;5021539;28;20128;-73
2022/07/08 02:57:43;;;;;;;15.20;6.47;;;;;;;14.74;82.14;101386.69;5019141;28;20447;-73
2022/07/08 03:00:09;;;;;;;19.20;5.97;;;;;;;14.70;82.49;101383.19;5022327;28;20458;-73
2022/07/08 03:02:34;;;;;;;19.75;6.43;;;;;;;14.78;82.25;101394.63;5019026;28;20460;-73
2022/07/08 03:05:00;;;;;;;16.60;6.45;;;;;;;14.77;82.11;101389.31;5021275;28;20037;-73
2022/07/08 03:07:26;;;;;;;16.10;6.80;;;;;;;14.81;82.72;101389.25;5016418;28;20197;-73
2022/07/08 03:09:51;;;;;;;14.50;6.63;;;;;;;14.84;82.30;101380.38;5023517;28;20128;-74
2022/07/08 03:12:16;;;;;;;15.40;6.75;;;;;;;14.85;81.94;101396.28;5018694;28;20045;-73
2022/07/08 03:14:42;;;;;;;12.05;6.10;;;;;;;14.92;81.17;101388.28;5022243;28;20050;-73
2022/07/08 03:17:07;;;;;;;21.50;7.45;;;;;;;14.80;81.76;101390.19;5020288;28;20172;-73
2022/07/08 03:19:33;;;;;;;17.20;6.38;;;;;;;14.89;81.26;101391.84;5024789;28;20048;-74
2022/07/08 03:21:58;;;;;;;16.80;6.75;;;;;;;14.83;81.25;101400.75;5023377;28;20048;-73
2022/07/08 03:24:23;;;;;;;15.18;6.57;;;;;;;14.79;81.73;101399.03;5023419;28;20030;-74
2022/07/08 03:26:50;;;;;;;18.20;5.63;;;;;;;14.77;82.02;101414.09;5025106;28;20033;-73
2022/07/08 03:29:15;;;;;;;16.50;5.90;;;;;;;14.74;83.02;101406.16;5022870;28;20052;-73
2022/07/08 03:31:41;;;;;;;7.40;5.40;;;;;;;14.80;82.20;101410.53;5023803;28;20492;-73
2022/07/08 03:34:06;;;;;;;9.98;6.65;;;;;;;14.78;82.32;101413.22;5024835;28;20124;-73
2022/07/08 03:36:31;;;;;;;20.55;6.43;;;;;;;14.77;82.64;101411.44;5023488;28;20034;-73
2022/07/08 03:38:57;;;;;;;13.48;5.50;;;;;;;14.86;82.00;101418.47;5027541;28;20029;-73
2022/07/08 03:41:23;;;;;;;12.73;5.88;;;;;;;14.89;82.28;101407.78;5025957;28;20042;-73
2022/07/08 03:43:52;;;;;;;8.77;5.72;;;;;;;14.97;81.62;101421.00;5025332;28;20554;-73
2022/07/08 03:46:18;;;;;;;16.25;5.45;;;;;;;15.03;81.51;101408.53;5022683;28;20038;-73
2022/07/08 03:48:44;;;;;;;8.73;5.65;;;;;;;14.97;81.45;101423.66;5009473;28;20079;-74
2022/07/08 03:51:09;;;;;;;6.95;5.75;;;;;;;14.99;81.87;101422.75;5022918;28;20045;-73
2022/07/08 03:53:35;;;;;;;13.63;5.88;;;;;;;15.02;81.59;101424.50;5005033;28;20034;-73
2022/07/08 03:56:01;;;;;;;9.65;5.47;;;;;;;15.05;81.19;101427.13;5024922;28;20476;-73
2022/07/08 03:58:26;;;;;;;6.25;4.60;;;;;;;15.08;81.56;101429.75;5021640;28;20089;-73
2022/07/08 04:00:52;;;;;;;7.72;5.68;;;;;;;15.15;80.97;101431.44;5024477;28;20037;-73
2022/07/08 04:03:17;;;;;;;12.82;6.53;;;;;;;15.17;80.99;101437.66;5022359;28;20073;-73
2022/07/08 04:05:42;;;;;;;7.68;5.55;;;;;;;15.15;81.34;101435.91;5026740;28;20075;-73
2022/07/08 04:08:08;;;;;;;13.57;5.45;;;;;;;15.21;80.94;101444.66;5027883;28;20092;-73
2022/07/08 04:10:33;;;;;;;6.15;5.55;;;;;;;15.17;81.25;101445.63;5025700;28;20038;-73
2022/07/08 04:12:58;;;;;;;16.30;5.88;;;;;;;15.24;81.35;101449.06;5024169;28;20384;-73
2022/07/08 04:15:24;;;;;;;10.13;5.60;;;;;;;15.21;81.29;101450.00;5028288;28;20563;-73
2022/07/08 04:17:49;;;;;;;12.90;4.65;;;;;;;15.18;81.73;101447.38;5024103;28;20463;-74
2022/07/08 04:20:15;;;;;;;13.18;6.15;;;;;;;15.27;81.31;101447.28;5023567;28;20037;-73
2022/07/08 04:22:40;;;;;;;10.90;6.00;;;;;;;15.32;81.17;101453.41;5022449;28;20045;-73
2022/07/08 04:25:06;;;;;;;14.75;5.88;;;;;;;15.27;81.15;101457.00;5022030;28;20396;-73
2022/07/08 04:27:32;;;;;;;14.80;6.40;;;;;;;15.31;81.06;101461.41;5023637;28;20037;-73
2022/07/08 04:29:57;;;;;;;9.05;5.63;;;;;;;15.35;81.37;101468.44;5021103;28;20077;-73
2022/07/08 04:32:23;;;;;;;14.00;5.43;;;;;;;15.39;81.02;101464.00;5023596;28;20392;-74
2022/07/08 04:34:48;;;;;;;7.88;5.25;;;;;;;15.44;81.61;101472.81;5025154;28;20042;-73
2022/07/08 04:37:14;;;;;;;26.30;6.75;;;;;;;15.37;81.68;101471.97;5022649;28;20048;-73
2022/07/08 04:39:39;;;;;;;11.10;5.88;;;;;;;15.33;82.24;101480.91;5023890;28;20045;-73
2022/07/08 04:42:05;;;;;;;16.25;4.93;;;;;;;15.33;82.19;101481.78;5003575;28;20121;-73
2022/07/08 04:44:30;;;;;;;11.18;6.53;;;;;;;15.24;83.33;101492.50;5023087;28;20053;-74
2022/07/08 04:46:55;;;;;;;7.63;5.38;;;;;;;15.27;82.86;101497.81;5027548;28;20053;-74
2022/07/08 04:49:21;;;;;;;12.57;6.18;;;;;;;15.26;83.99;101501.34;5023138;28;20044;-73
2022/07/08 04:51:46;;;;;;;22.02;5.65;;;;;;;15.14;86.00;101498.81;5021253;28;20045;-73
2022/07/08 04:54:11;;;;;;;7.05;6.07;;;;;;;15.11;86.10;101493.53;5022017;28;20041;-73
2022/07/08 04:56:37;;;;;;;11.38;5.82;;;;;;;15.01;86.80;101490.09;5022754;28;20045;-73
2022/07/08 04:59:02;;;;;;;12.68;6.10;;;;;;;15.00;87.68;101493.63;5020844;28;20046;-73
2022/07/08 05:01:27;;;;;;;9.30;5.15;;;;;;;15.03;88.06;101492.72;5023193;28;20407;-73
2022/07/08 05:03:54;;;;;;;10.60;5.72;;;;;;;15.07;88.26;101505.09;5020578;28;20508;-73
2022/07/08 05:06:19;;;;;;;14.45;5.60;;;;;;;15.13;88.37;101503.25;5029421;28;20040;-73
2022/07/08 05:08:45;;;;;;;8.23;4.43;;;;;;;15.24;87.40;101507.59;5021900;28;20400;-73
2022/07/08 05:11:10;;;;;;;18.90;5.88;;;;;;;15.20;87.54;101519.16;5019418;28;20041;-73
2022/07/08 05:13:36;;;;;;;7.57;4.65;;;;;;;15.25;86.31;101517.34;5023036;28;20064;-73
2022/07/08 05:16:01;;;;;;;13.90;4.88;;;;;;;15.34;85.92;101518.09;5020201;28;20046;-73
2022/07/08 05:18:26;;;;;;;9.95;5.57;;;;;;;15.48;85.04;101528.63;5023213;28;20041;-74
2022/07/08 05:20:52;;;;;;;10.25;5.35;;;;;;;15.53;83.61;101523.22;5020037;28;20041;-73
2022/07/08 05:23:17;;;;;;;16.85;5.60;;;;;;;15.56;83.70;101523.19;5025492;28;20436;-73
2022/07/08 05:25:42;;;;;;;8.80;5.57;;;;;;;15.62;83.15;101530.25;5018674;28;20440;-73
2022/07/08 05:28:08;;;;;;;9.65;5.68;;;;;;;15.70;82.32;101526.63;5023686;28;20451;-73
2022/07/08 05:30:33;;;;;;;31.13;5.95;;;;;;;15.84;82.30;101537.13;5024277;28;20480;-73
2022/07/08 05:32:59;;;;;;;16.83;7.00;;;;;;;15.67;81.51;101537.28;5022867;28;20042;-74
2022/07/08 05:35:24;;;;;;;12.80;5.93;;;;;;;15.74;81.57;101548.75;5020445;28;20092;-73
2022/07/08 05:37:49;;;;;;;8.55;5.85;;;;;;;15.75;80.79;101540.78;5022275;28;20037;-73
2022/07/08 05:40:15;;;;;;;19.90;6.43;;;;;;;15.85;80.59;101543.31;5022401;28;20394;-74
2022/07/08 05:42:40;;;;;;;11.80;6.20;;;;;;;15.97;80.44;101543.16;5021370;28;20034;-74
2022/07/08 05:45:07;;;;;;;7.70;5.20;;;;;;;16.09;79.32;101551.00;5020550;28;20038;-73
2022/07/08 05:47:32;;;;;;;10.73;5.35;;;;;;;16.17;78.04;101557.13;5029033;28;20029;-73
2022/07/08 05:49:58;;;;;;;12.00;5.97;;;;;;;16.04;78.39;101557.31;5027217;28;20045;-73
2022/07/08 05:52:23;;;;;;;6.65;5.30;;;;;;;16.13;78.97;101566.03;5025995;28;20119;-73
2022/07/08 05:54:49;;;;;;;14.55;6.20;;;;;;;16.13;77.26;101571.38;5023944;28;20064;-74
2022/07/08 05:57:15;;;;;;;15.63;6.97;;;;;;;16.09;77.65;101571.44;5023270;28;20095;-74
2022/07/08 05:59:41;;;;;;;11.05;6.35;;;;;;;16.07;77.52;101563.47;5026538;28;20498;-73
2022/07/08 06:02:07;;;;;;;14.43;4.93;;;;;;;16.18;77.63;101574.84;5026516;28;20120;-74
2022/07/08 06:04:32;;;;;;;10.27;5.82;;;;;;;16.17;76.73;101586.41;5025019;28;20124;-73
2022/07/08 06:06:58;;;;;;;9.23;5.53;;;;;;;16.13;75.74;101571.38;5029297;28;20037;-73
2022/07/08 06:09:24;;;;;;;10.20;5.65;;;;;;;16.21;76.94;101572.13;5024874;28;20038;-73
2022/07/08 06:11:50;;;;;;;9.52;5.57;;;;;;;16.44;76.24;101570.97;5020547;28;20037;-73
2022/07/08 06:14:15;;;;;;;13.40;5.82;;;;;;;16.55;74.58;101561.03;5026003;28;20480;-73
2022/07/08 06:16:40;;;;;;;7.22;6.07;;;;;;;16.55;73.71;101571.69;5027820;28;20052;-74
2022/07/08 06:19:06;;;;;;;7.38;5.10;;;;;;;16.70;74.00;101570.59;5027090;28;20060;-73
2022/07/08 06:21:31;;;;;;;6.72;6.07;;;;;;;16.76;72.92;101572.28;5027003;28;20116;-73
2022/07/08 06:23:58;;;;;;;7.78;5.47;;;;;;;16.79;72.49;101574.94;5027555;28;20121;-74
2022/07/08 06:26:23;;;;;;;5.65;5.00;;;;;;;16.86;71.29;101572.16;5027883;28;20052;-73
2022/07/08 06:28:48;;;;;;;9.60;5.80;;;;;;;16.81;71.58;101568.66;5027444;28;20038;-73
2022/07/08 06:31:13;;;;;;;15.55;6.43;;;;;;;16.93;70.93;101570.28;5026931;28;20041;-73
2022/07/08 06:33:39;;;;;;;14.15;5.60;;;;;;;16.99;70.33;101564.84;5027624;28;20037;-73
2022/07/08 06:36:05;;;;;;;11.45;5.65;;;;;;;17.05;69.94;101567.38;5028194;28;20033;-74
2022/07/08 06:38:30;;;;;;;8.65;5.72;;;;;;;17.10;69.90;101578.00;5027994;28;20061;-73
2022/07/08 06:40:56;;;;;;;8.73;6.10;;;;;;;17.13;69.50;101577.06;5026966;28;20476;-74
2022/07/08 06:43:22;;;;;;;10.35;5.13;;;;;;;17.09;70.43;101571.78;5025488;28;20051;-74
2022/07/08 06:45:49;;;;;;;13.30;6.63;;;;;;;17.09;69.24;101592.25;5012455;28;20030;-73
2022/07/08 06:48:15;;;;;;;8.40;5.40;;;;;;;16.97;69.21;101587.97;5023419;28;20122;-74
2022/07/08 06:50:41;;;;;;;9.48;5.07;;;;;;;17.05;69.49;101591.41;5020359;28;20038;-74
2022/07/08 06:53:06;;;;;;;5.38;4.47;;;;;;;16.92;70.84;101579.16;5030138;28;20079;-74
2022/07/08 06:55:31;;;;;;;7.13;5.22;;;;;;;17.05;70.16;101585.19;5028109;28;20029;-73
2022/07/08 06:57:57;;;;;;;10.73;5.47;;;;;;;17.03;69.85;101587.91;5030195;28;20091;-74
2022/07/08 07:00:23;;;;;;;10.30;5.57;;;;;;;17.00;70.72;101595.94;5030769;28;20087;-73
2022/07/08 07:02:49;;;;;;;13.38;5.55;;;;;;;17.19;70.31;101601.00;5031535;28;20033;-74
2022/07/08 07:05:14;;;;;;;7.50;5.82;;;;;;;17.25;69.81;101599.09;5033049;28;20029;-74
2022/07/08 07:07:39;;;;;;;6.38;4.60;;;;;;;17.15;70.05;101601.94;5032693;28;20087;-74
2022/07/08 07:10:06;;;;;;;6.97;4.90;;;;;;;17.17;69.53;101611.66;5031016;28;20044;-74
2022/07/08 07:12:31;;;;;;;10.43;5.40;;;;;;;17.07;70.54;101605.59;5030999;28;20048;-73
2022/07/08 07:14:56;;;;;;;8.63;4.63;;;;;;;17.11;69.85;101613.53;5031995;28;20041;-73
2022/07/08 07:17:22;;;;;;;8.32;5.65;;;;;;;17.07;69.96;101620.72;5031128;28;20037;-74
2022/07/08 07:19:48;;;;;;;8.30;5.70;;;;;;;17.06;69.99;101619.84;5030655;28;20033;-73
2022/07/08 07:22:15;;;;;;;11.05;5.30;;;;;;;17.14;70.04;101626.84;5030577;28;20029;-73
2022/07/08 07:24:41;;;;;;;13.02;5.85;;;;;;;17.25;70.12;101630.22;5032804;28;20079;-73
2022/07/08 07:27:06;;;;;;;8.20;4.72;;;;;;;17.13;70.01;101622.41;5030065;28;20111;-74
2022/07/08 07:29:32;;;;;;;7.10;4.72;;;;;;;17.21;70.75;101633.81;5031367;28;20611;-73
2022/07/08 07:31:58;;;;;;;5.38;4.65;;;;;;;17.29;69.74;101626.56;5027429;28;20133;-73
2022/07/08 07:34:23;;;;;;;5.80;4.57;;;;;;;17.22;70.13;101630.28;5028110;28;20104;-73
2022/07/08 07:36:48;;;;;;;6.50;5.60;;;;;;;17.25;69.90;101640.88;5031553;28;20037;-73
2022/07/08 07:39:14;;;;;;;7.07;5.40;;;;;;;17.36;70.95;101638.91;5028871;28;20036;-73
2022/07/08 07:41:39;;;;;;;4.90;4.50;;;;;;;17.62;69.54;101641.13;5031345;28;20029;-73
2022/07/08 07:44:05;;;;;;;13.48;6.25;;;;;;;17.43;68.14;101639.72;5031599;28;20711;-73
2022/07/08 07:46:31;;;;;;;6.82;4.57;;;;;;;17.40;69.66;101645.09;5031747;28;20041;-73
2022/07/08 07:48:56;;;;;;;11.32;6.18;;;;;;;17.39;68.92;101646.00;5031569;28;20132;-73
2022/07/08 07:51:22;;;;;;;11.82;5.00;;;;;;;17.35;68.51;101663.84;5031294;28;20032;-73
2022/07/08 07:53:47;;;;;;;7.63;4.85;;;;;;;17.44;67.71;101658.34;5032734;28;20124;-72
2022/07/08 07:56:13;;;;;;;7.65;5.75;;;;;;;17.24;67.95;101655.16;5031675;28;20076;-73
2022/07/08 07:58:39;;;;;;;4.88;4.15;;;;;;;17.19;68.72;101678.34;5031346;28;20057;-73
2022/07/08 08:01:05;;;;;;;13.18;5.45;;;;;;;17.14;68.46;101669.53;5031670;28;20033;-73
2022/07/08 08:03:31;;;;;;;6.03;4.53;;;;;;;17.02;68.39;101671.47;5030633;28;20022;-73
2022/07/08 08:05:56;;;;;;;10.27;5.20;;;;;;;16.92;69.27;101661.81;5030459;28;20030;-73
2022/07/08 08:08:24;;;;;;;12.10;5.40;;;;;;;16.85;69.70;101685.03;5029976;28;20045;-73
2022/07/08 08:10:53;;;;;;;7.28;5.65;;;;;;;16.86;69.73;101677.91;5031364;28;20033;-73
2022/07/08 08:13:19;;;;;;;11.90;5.07;;;;;;;16.82;70.21;101670.84;5029491;28;20061;-72
2022/07/08 08:15:44;;;;;;;6.80;4.88;;;;;;;16.67;70.51;101671.06;5032420;28;20037;-72
2022/07/08 08:18:10;;;;;;;5.88;4.45;;;;;;;16.46;71.08;101689.06;5031614;28;20037;-73
2022/07/08 08:20:35;;;;;;;5.72;4.43;;;;;;;16.41;71.37;101685.59;5030022;28;20029;-73
2022/07/08 08:23:01;;;;;;;3.97;3.67;;;;;;;16.46;72.54;101689.06;5030293;28;20033;-73
2022/07/08 08:25:27;;;;;;;11.98;4.95;;;;;;;16.54;71.91;101689.84;5024427;28;20039;-73
2022/07/08 08:27:53;;;;;;;7.20;4.30;;;;;;;16.55;71.54;101694.28;5020199;28;20045;-73
2022/07/08 08:30:18;;;;;;;5.63;4.72;;;;;;;16.58;71.09;101702.25;5026115;28;20108;-73
2022/07/08 08:32:45;;;;;;;6.85;4.93;;;;;;;16.36;71.44;101700.75;5019992;28;20030;-72
2022/07/08 08:35:10;;;;;;;7.40;4.30;;;;;;;16.31;71.87;101687.47;5007188;28;20034;-72
2022/07/08 08:37:35;;;;;;;5.30;4.78;;;;;;;16.39;71.49;101690.03;5025466;28;20044;-73
2022/07/08 08:40:03;;;;;;;5.72;4.00;;;;;;;16.48;71.45;101692.63;5027219;28;20038;-73
2022/07/08 08:42:30;;;;;;;7.35;5.93;;;;;;;16.72;70.18;101688.75;5020089;28;20040;-73
2022/07/08 08:44:57;;;;;;;7.97;6.00;;;;;;;16.94;69.33;101699.16;5030016;28;20033;-72
2022/07/08 08:47:27;;;;;;;6.30;5.63;;;;;;;17.11;67.75;101710.47;5029574;28;20041;-73
2022/07/08 08:49:55;;;;;;;15.18;7.38;;;;;;;17.13;67.43;101692.63;5027965;28;20041;-72
2022/07/08 08:52:23;;;;;;;5.97;5.40;;;;;;;17.28;67.09;101704.88;5027394;28;20057;-72
2022/07/08 08:54:49;;;;;;;7.10;5.50;;;;;;;17.17;66.29;101699.69;5028254;28;20578;-73
2022/07/08 08:57:15;;;;;;;5.82;4.22;;;;;;;17.24;67.36;101692.50;5007148;28;20034;-73
2022/07/08 08:59:41;;;;;;;6.78;5.40;;;;;;;17.46;66.13;101688.56;5027112;28;20037;-73
2022/07/08 09:02:10;;;;;;;7.40;5.30;;;;;;;17.60;64.91;101691.00;5028228;28;20412;-73
2022/07/08 09:04:37;;;;;;;10.48;9.45;;;;;;;17.74;64.93;101694.34;5023226;28;20388;-73
2022/07/08 09:07:02;;;;;;;6.03;5.05;;;;;;;17.85;64.36;101690.63;5020029;28;20052;-73
2022/07/08 09:09:28;;;;;;;10.57;5.05;;;;;;;17.94;63.95;101688.66;5024112;28;20037;-73
2022/07/08 09:11:53;;;;;;;14.18;6.15;;;;;;;18.28;63.04;101698.69;5021014;28;20043;-74
2022/07/08 09:14:20;;;;;;;7.75;6.30;;;;;;;18.02;61.60;101709.00;5024526;28;20038;-73
2022/07/08 09:17:12;;;;;;;6.95;5.47;;;;;;;17.86;63.47;101693.25;5026174;28;20034;-73
2022/07/08 09:19:40;;;;;;;6.40;5.38;;;;;;;18.01;63.25;101694.78;5023300;28;20025;-74
2022/07/08 09:22:07;;;;;;;7.15;6.55;;;;;;;18.04;62.55;101691.16;5019483;28;20037;-73
2022/07/08 09:24:33;;;;;;;21.48;6.78;;;;;;;17.96;61.92;101702.88;5024320;28;20048;-73
2022/07/08 09:27:06;;;;;;;6.07;5.45;;;;;;;17.96;62.18;101697.53;5026139;28;20065;-74
2022/07/08 09:29:31;;;;;;;8.50;5.75;;;;;;;17.88;62.52;101702.13;5023749;28;20029;-72
2022/07/08 09:32:09;;;;;;;7.47;5.45;;;;;;;17.82;61.89;101704.91;5027278;28;20091;-74
2022/07/08 09:34:35;;;;;;;8.23;5.50;;;;;;;17.82;61.82;101712.94;5023462;28;20120;-73
2022/07/08 09:37:10;;;;;;;13.23;5.18;;;;;;;17.79;61.44;101693.34;5022345;28;20048;-74
2022/07/08 09:39:35;;;;;;;6.07;5.32;;;;;;;17.88;62.24;101704.78;5022062;28;20120;-74
2022/07/08 09:42:01;;;;;;;5.68;5.18;;;;;;;18.02;61.04;101698.31;5020749;28;20108;-73
2022/07/08 09:44:26;;;;;;;7.20;5.45;;;;;;;18.12;60.53;101697.25;5023381;28;20033;-73
2022/07/08 09:46:52;;;;;;;9.75;4.32;;;;;;;18.20;60.62;101707.78;5025612;28;20038;-74
2022/07/08 09:49:28;;;;;;;18.02;6.00;;;;;;;18.35;59.94;101704.81;5021751;28;20037;-73
2022/07/08 09:51:53;;;;;;;14.50;6.80;;;;;;;18.33;59.53;101712.84;5025871;28;20116;-73
2022/07/08 09:54:20;;;;;;;7.93;4.78;;;;;;;18.46;58.89;101707.28;5023196;28;20137;-74
2022/07/08 09:57:01;;;;;;;9.88;6.07;;;;;;;18.52;58.44;101707.13;5019318;28;20056;-74
2022/07/08 09:59:31;;;;;;;5.38;4.97;;;;;;;18.74;58.81;101707.59;5023020;28;20021;-73
2022/07/08 10:01:57;;;;;;;7.65;4.70;;;;;;;18.94;58.71;101713.44;5018752;28;20055;-73
2022/07/08 10:04:24;;;;;;;9.35;5.10;;;;;;;18.74;57.61;101700.44;5029017;28;20484;-74
2022/07/08 10:06:50;;;;;;;7.43;5.22;;;;;;;18.47;58.72;101711.69;5020595;28;20041;-73
2022/07/08 10:09:16;;;;;;;5.80;5.10;;;;;;;18.38;58.39;101708.31;5023816;28;20037;-74
2022/07/08 10:11:43;;;;;;;12.23;11.02;;;;;;;18.19;59.39;101717.59;5021259;28;20045;-73
2022/07/08 10:14:08;;;;;;;10.98;9.23;;;;;;;18.07;59.49;101707.13;5029878;28;20439;-73
2022/07/08 10:16:34;;;;;;;10.88;10.05;;;;;;;18.43;59.83;101704.66;5021298;28;20041;-74
2022/07/08 10:19:03;;;;;;;10.70;10.00;;;;;;;18.92;57.58;101707.22;5020174;28;20385;-74
2022/07/08 10:21:31;;;;;;;13.05;12.20;;;;;;;19.13;57.36;101713.00;5025496;28;20045;-74
2022/07/08 10:23:56;;;;;;;17.70;16.48;;;;;;;18.77;57.57;101705.75;5025015;28;20029;-73
2022/07/08 10:26:30;;;;;;;13.20;11.82;;;;;;;18.49;58.33;101709.88;5021338;28;20381;-73
2022/07/08 10:29:10;;;;;;;16.75;15.38;;;;;;;18.13;58.80;101729.28;5029332;28;20128;-73
2022/07/08 10:31:42;;;;;;;12.13;11.23;;;;;;;18.00;59.81;101732.19;5024947;28;20124;-73
2022/07/08 10:34:08;;;;;;;14.55;13.45;;;;;;;17.92;60.51;101735.91;5027323;28;20038;-73
2022/07/08 10:36:53;;;;;;;12.30;8.52;;;;;;;18.01;60.31;101725.97;5026535;28;20124;-74
2022/07/08 10:39:30;;;;;;;11.23;10.27;;;;;;;18.27;58.87;101726.34;5026306;28;20067;-74
2022/07/08 10:42:10;;;;;;;12.52;11.52;;;;;;;18.47;57.31;101727.75;5027860;28;20033;-74
2022/07/08 10:44:44;;;;;;;8.38;7.63;;;;;;;18.72;56.91;101723.66;5029842;28;20112;-74
2022/07/08 10:47:17;;;;;;;10.23;9.32;;;;;;;18.43;55.97;101752.78;5026729;28;20086;-73
2022/07/08 10:49:47;;;;;;;12.43;11.40;;;;;;;18.31;56.88;101721.81;5030224;28;20045;-73
2022/07/08 10:52:17;;;;;;;8.70;7.95;;;;;;;18.23;58.03;101726.44;5023052;28;20045;-72
2022/07/08 10:54:43;;;;;;;8.57;7.78;;;;;;;18.05;57.10;101725.88;5026567;28;20065;-72
2022/07/08 10:57:28;;;;;;;10.93;9.30;;;;;;;18.01;57.50;101736.63;5029347;28;20064;-73
2022/07/08 11:00:09;;;;;;;9.70;9.00;;;;;;;17.98;57.61;101739.38;5032887;28;20037;-72
2022/07/08 11:02:40;;;;;;;9.30;8.67;;;;;;;17.92;57.48;101730.56;5022379;28;20068;-73
2022/07/08 11:05:06;;;;;;;8.40;7.68;;;;;;;18.01;57.90;101741.97;5022537;28;20133;-71
2022/07/08 11:07:32;;;;;;;7.68;7.18;;;;;;;18.12;57.69;101748.00;5006913;28;20135;-72
2022/07/08 11:10:07;;;;;;;8.55;7.75;;;;;;;18.08;57.03;101751.66;5023049;28;20061;-73
2022/07/08 11:12:39;;;;;;;7.95;7.35;;;;;;;18.22;57.19;101746.94;5020600;28;20113;-71
2022/07/08 11:15:12;;;;;;;8.10;7.20;;;;;;;18.11;56.86;101736.44;5022974;28;20478;-73
2022/07/08 11:17:39;;;;;;;8.30;7.70;;;;;;;18.18;57.15;101740.78;5021970;28;20057;-72
2022/07/08 11:20:10;;;;;;;7.78;7.07;;;;;;;18.27;55.72;101731.69;5024492;28;20091;-72